createdAt,value
2023-01-04T00:01:23.610Z,7.47
2023-01-04T00:03:51.954Z,8.40
2023-01-04T00:06:20.553Z,7.45
2023-01-04T00:08:48.391Z,11.52
2023-01-04T00:11:18.796Z,8.82
2023-01-04T00:13:49.409Z,9.00
2023-01-04T00:16:20.575Z,12.88
2023-01-04T00:18:49.239Z,10.23
2023-01-04T00:21:19.064Z,11.23
2023-01-04T00:23:48.470Z,9.95
2023-01-04T00:26:19.027Z,13.73
2023-01-04T00:28:54.172Z,12.10
2023-01-04T00:31:23.386Z,12.77
2023-01-04T00:33:51.832Z,10.82
2023-01-04T00:36:19.556Z,11.30
2023-01-04T00:38:47.346Z,12.65
2023-01-04T00:41:34.746Z,10.98
2023-01-04T00:44:04.436Z,12.98
2023-01-04T00:46:32.681Z,13.55
2023-01-04T00:49:01.246Z,16.63
2023-01-04T00:51:29.770Z,11.68
2023-01-04T00:53:58.204Z,12.25
2023-01-04T00:56:26.003Z,19.17
2023-01-04T00:58:56.231Z,15.70
2023-01-04T01:01:26.531Z,13.35
2023-01-04T01:03:55.808Z,12.43
2023-01-04T01:06:25.198Z,16.15
2023-01-04T01:08:53.445Z,13.88
2023-01-04T01:11:22.255Z,11.98
2023-01-04T01:13:50.988Z,15.40
2023-01-04T01:16:44.556Z,13.75
2023-01-04T01:19:10.414Z,12.25
2023-01-04T01:21:38.767Z,11.10
2023-01-04T01:24:07.546Z,10.98
2023-01-04T01:26:35.281Z,13.95
2023-01-04T01:29:03.041Z,13.32
2023-01-04T01:31:30.905Z,15.80
2023-01-04T01:33:58.852Z,10.90
2023-01-04T01:36:28.273Z,11.50
2023-01-04T01:38:56.140Z,11.82
2023-01-04T01:41:26.544Z,13.23
2023-01-04T01:43:57.309Z,13.15
2023-01-04T01:46:29.896Z,9.65
2023-01-04T01:49:04.681Z,10.95
2023-01-04T01:51:35.184Z,12.05
2023-01-04T01:54:06.044Z,12.75
2023-01-04T01:56:37.084Z,14.75
2023-01-04T01:59:05.617Z,12.30
2023-01-04T02:01:34.666Z,12.88
2023-01-04T02:04:03.800Z,14.02
2023-01-04T02:06:38.116Z,12.10
2023-01-04T02:09:05.884Z,13.18
2023-01-04T02:11:33.844Z,11.85
2023-01-04T02:14:20.161Z,31.42
2023-01-04T02:17:00.591Z,14.40
2023-01-04T02:20:04.549Z,14.25
2023-01-04T02:23:24.393Z,16.27
2023-01-04T02:26:20.298Z,13.63
2023-01-04T02:29:17.739Z,14.73
2023-01-04T02:31:52.577Z,14.38
2023-01-04T02:34:30.832Z,15.63
2023-01-04T02:37:05.005Z,15.18
2023-01-04T02:39:39.377Z,15.25
2023-01-04T02:42:15.390Z,14.13
2023-01-04T02:44:54.056Z,14.05
2023-01-04T02:47:46.113Z,17.08
2023-01-04T02:50:33.702Z,16.15
2023-01-04T02:53:03.935Z,17.92
2023-01-04T02:55:42.436Z,14.98
2023-01-04T02:58:21.159Z,15.00
2023-01-04T03:01:24.752Z,15.77
2023-01-04T03:04:19.485Z,12.40
2023-01-04T03:06:54.842Z,14.45
2023-01-04T03:09:27.687Z,16.07
2023-01-04T03:12:18.732Z,14.55
2023-01-04T03:14:52.361Z,16.92
2023-01-04T03:17:22.928Z,19.13
2023-01-04T03:19:57.822Z,16.77
2023-01-04T03:22:50.771Z,18.38
2023-01-04T03:25:42.299Z,15.30
2023-01-04T03:28:30.626Z,15.77
2023-01-04T03:31:23.192Z,13.50
2023-01-04T03:34:08.799Z,12.82
2023-01-04T03:36:48.942Z,13.05
2023-01-04T03:39:45.338Z,10.85
2023-01-04T03:42:37.872Z,12.00
2023-01-04T03:45:34.101Z,9.65
2023-01-04T03:48:25.002Z,10.47
2023-01-04T03:50:58.369Z,10.27
2023-01-04T03:53:29.575Z,11.80
2023-01-04T03:55:59.906Z,10.43
2023-01-04T03:58:28.312Z,11.50
2023-01-04T04:01:03.223Z,11.93
2023-01-04T04:03:49.673Z,13.50
2023-01-04T04:06:35.423Z,11.43
2023-01-04T04:09:05.165Z,14.27
2023-01-04T04:11:32.853Z,10.75
2023-01-04T04:14:01.425Z,12.75
2023-01-04T04:16:29.680Z,14.20
2023-01-04T04:18:59.131Z,13.20
2023-01-04T04:21:28.631Z,13.20
2023-01-04T04:23:56.420Z,14.88
2023-01-04T04:26:26.097Z,14.43
2023-01-04T04:28:53.914Z,16.50
2023-01-04T04:31:21.704Z,16.15
2023-01-04T04:33:49.543Z,17.45
2023-01-04T04:36:17.282Z,15.65
2023-01-04T04:38:45.071Z,19.27
2023-01-04T04:41:31.956Z,19.67
2023-01-04T04:44:01.175Z,22.23
2023-01-04T04:46:29.167Z,22.63
2023-01-04T04:48:57.313Z,25.45
2023-01-04T04:51:25.375Z,21.67
2023-01-04T04:53:53.077Z,24.95
2023-01-04T04:56:20.916Z,23.70
2023-01-04T04:58:49.261Z,25.90
2023-01-04T05:01:18.673Z,26.70
2023-01-04T05:03:46.631Z,28.85
2023-01-04T05:06:14.544Z,31.42
2023-01-04T05:08:42.299Z,24.98
2023-01-04T05:11:14.167Z,29.40
2023-01-04T05:13:41.619Z,25.83
2023-01-04T05:16:10.898Z,24.80
2023-01-04T05:18:40.047Z,24.92
2023-01-04T05:21:07.752Z,27.42
2023-01-04T05:23:35.533Z,25.90
2023-01-04T05:26:03.774Z,25.08
2023-01-04T05:28:33.052Z,26.70
2023-01-04T05:30:59.900Z,24.95
2023-01-04T05:33:29.946Z,26.30
2023-01-04T05:36:00.524Z,23.15
2023-01-04T05:38:28.814Z,28.15
2023-01-04T05:40:56.983Z,24.95
2023-01-04T05:43:25.538Z,27.55
2023-01-04T05:45:55.521Z,29.92
2023-01-04T05:48:25.638Z,25.80
2023-01-04T05:50:54.574Z,24.83
2023-01-04T05:53:23.679Z,25.15
2023-01-04T05:55:51.519Z,24.02
2023-01-04T05:58:19.275Z,23.08
2023-01-04T06:00:47.030Z,29.90
2023-01-04T06:03:14.849Z,22.20
2023-01-04T06:05:42.764Z,24.42
2023-01-04T06:08:10.488Z,26.48
2023-01-04T06:10:39.534Z,22.60
2023-01-04T06:13:07.229Z,23.63
2023-01-04T06:15:40.991Z,24.95
2023-01-04T06:18:13.503Z,24.15
2023-01-04T06:20:43.269Z,26.00
2023-01-04T06:23:11.056Z,24.38
2023-01-04T06:25:40.253Z,22.95
2023-01-04T06:28:08.064Z,23.38
2023-01-04T06:30:36.343Z,23.77
2023-01-04T06:33:04.283Z,24.75
2023-01-04T06:35:32.054Z,26.02
2023-01-04T06:37:59.791Z,25.63
2023-01-04T06:40:28.488Z,24.30
2023-01-04T06:42:57.570Z,23.52
2023-01-04T06:45:25.296Z,23.90
2023-01-04T06:47:53.089Z,25.92
2023-01-04T06:50:20.819Z,21.13
2023-01-04T06:52:48.610Z,24.27
2023-01-04T06:55:16.388Z,23.08
2023-01-04T06:57:44.198Z,18.85
2023-01-04T07:00:14.848Z,22.88
2023-01-04T07:03:13.632Z,20.05
2023-01-04T07:05:30.519Z,22.08
2023-01-04T07:08:07.437Z,17.67
2023-01-04T07:10:35.873Z,19.52
2023-01-04T07:13:03.787Z,16.33
2023-01-04T07:15:37.977Z,17.17
2023-01-04T07:18:08.673Z,15.30
2023-01-04T07:20:36.679Z,16.25
2023-01-04T07:23:04.534Z,18.33
2023-01-04T07:25:32.438Z,19.45
2023-01-04T07:28:00.220Z,13.02
2023-01-04T07:30:28.058Z,14.05
2023-01-04T07:32:57.816Z,12.98
2023-01-04T07:35:25.626Z,15.98
2023-01-04T07:37:58.309Z,15.55
2023-01-04T07:40:27.294Z,13.48
2023-01-04T07:42:56.759Z,13.18
2023-01-04T07:45:24.715Z,12.85
2023-01-04T07:47:52.458Z,11.65
2023-01-04T07:50:21.557Z,12.00
2023-01-04T07:52:49.358Z,11.20
2023-01-04T07:55:17.411Z,15.18
2023-01-04T07:57:45.119Z,14.48
2023-01-04T08:00:14.166Z,10.07
2023-01-04T08:02:42.131Z,11.07
2023-01-04T08:05:10.266Z,8.63
2023-01-04T08:07:39.347Z,9.30
2023-01-04T08:10:09.332Z,10.70
2023-01-04T08:12:37.245Z,8.85
2023-01-04T08:15:05.649Z,9.48
2023-01-04T08:17:33.361Z,8.40
2023-01-04T08:20:01.500Z,8.88
2023-01-04T08:22:29.304Z,7.47
2023-01-04T08:24:58.376Z,15.88
2023-01-04T08:27:26.231Z,9.57
2023-01-04T08:29:53.927Z,8.48
2023-01-04T08:32:21.653Z,8.30
2023-01-04T08:34:49.429Z,9.43
2023-01-04T08:37:17.152Z,7.90
2023-01-04T08:39:48.983Z,8.10
2023-01-04T08:42:25.076Z,7.38
2023-01-04T08:45:00.831Z,7.13
2023-01-04T08:47:29.097Z,6.00
2023-01-04T08:49:57.040Z,6.85
2023-01-04T08:52:24.757Z,7.97
2023-01-04T08:54:52.820Z,6.60
2023-01-04T08:57:21.886Z,6.90
2023-01-04T08:59:49.603Z,10.32
2023-01-04T09:02:24.778Z,7.70
2023-01-04T09:05:00.199Z,6.18
2023-01-04T09:07:32.013Z,6.30
2023-01-04T09:10:02.296Z,6.72
2023-01-04T09:12:33.443Z,4.70
2023-01-04T09:15:05.066Z,3.28
2023-01-04T09:17:34.253Z,7.78
2023-01-04T09:20:03.930Z,4.20
2023-01-04T09:22:34.151Z,4.32
2023-01-04T09:25:03.999Z,4.35
2023-01-04T09:27:35.742Z,4.30
2023-01-04T09:30:05.341Z,3.38
2023-01-04T09:32:34.961Z,3.63
2023-01-04T09:35:04.612Z,4.20
2023-01-04T09:37:34.241Z,2.72
2023-01-04T09:40:03.995Z,4.00
2023-01-04T09:42:40.299Z,1.73
2023-01-04T09:45:24.466Z,3.05
2023-01-04T09:47:59.752Z,1.73
2023-01-04T09:50:33.934Z,2.83
2023-01-04T09:53:12.633Z,2.40
2023-01-04T09:55:46.105Z,2.65
2023-01-04T09:58:23.313Z,3.47
2023-01-04T10:00:56.660Z,1.92
2023-01-04T10:03:28.737Z,4.93
2023-01-04T10:05:57.723Z,2.20
2023-01-04T10:08:26.077Z,2.28
2023-01-04T10:11:06.606Z,2.72
2023-01-04T10:14:00.219Z,2.13
2023-01-04T10:17:20.320Z,1.42
2023-01-04T10:22:42.890Z,3.03
2023-01-04T10:28:11.676Z,1.73
2023-01-04T10:30:50.909Z,2.20
2023-01-04T10:33:28.897Z,2.28
2023-01-04T10:35:57.206Z,3.60
2023-01-04T10:38:31.113Z,2.08
2023-01-04T10:41:02.602Z,2.65
2023-01-04T10:44:11.369Z,3.53
2023-01-04T10:46:33.478Z,2.50
2023-01-04T10:49:08.824Z,3.67
2023-01-04T10:51:46.400Z,2.65
2023-01-04T10:54:23.068Z,3.08
2023-01-04T10:56:57.165Z,4.78
2023-01-04T10:59:29.685Z,4.88
2023-01-04T11:02:03.356Z,3.42
2023-01-04T11:04:38.293Z,5.68
2023-01-04T11:07:11.812Z,2.38
2023-01-04T11:09:43.432Z,2.83
2023-01-04T11:12:14.404Z,3.83
2023-01-04T11:14:42.273Z,2.20
2023-01-04T11:17:12.794Z,2.63
2023-01-04T11:19:41.501Z,6.20
2023-01-04T11:22:16.618Z,2.85
2023-01-04T11:25:00.643Z,3.78
2023-01-04T11:27:45.125Z,5.95
2023-01-04T11:30:18.300Z,3.47
2023-01-04T11:32:53.912Z,2.35
2023-01-04T11:35:42.821Z,2.40
2023-01-04T11:38:16.597Z,4.03
2023-01-04T11:40:57.082Z,4.60
2023-01-04T11:43:26.355Z,3.58
2023-01-04T11:45:56.154Z,2.22
2023-01-04T11:48:37.836Z,4.10
2023-01-04T11:51:10.046Z,3.90
2023-01-04T11:53:40.216Z,5.30
2023-01-04T11:56:19.976Z,2.83
2023-01-04T11:59:04.700Z,4.10
2023-01-04T12:01:34.164Z,3.80
2023-01-04T12:04:04.374Z,3.83
2023-01-04T12:06:37.707Z,3.72
2023-01-04T12:09:05.467Z,1.77
2023-01-04T12:11:36.396Z,2.22
2023-01-04T12:14:05.384Z,3.92
2023-01-04T12:16:46.279Z,2.70
2023-01-04T12:19:17.797Z,1.83
2023-01-04T12:21:48.500Z,3.78
2023-01-04T12:24:19.838Z,4.50
2023-01-04T12:26:48.495Z,1.83
2023-01-04T12:29:52.260Z,2.67
2023-01-04T12:32:42.298Z,3.22
2023-01-04T12:35:58.874Z,1.33
2023-01-04T12:38:58.026Z,4.78
2023-01-04T12:42:00.355Z,2.35
2023-01-04T12:45:05.615Z,3.92
2023-01-04T12:47:59.280Z,1.48
2023-01-04T12:50:29.199Z,4.13
2023-01-04T12:55:56.795Z,2.75
2023-01-04T12:59:24.657Z,3.15
2023-01-04T13:02:16.429Z,3.03
2023-01-04T13:04:44.417Z,2.38
2023-01-04T13:07:18.254Z,2.85
2023-01-04T13:09:53.245Z,2.15
2023-01-04T13:12:45.048Z,2.10
2023-01-04T13:15:22.613Z,4.00
2023-01-04T13:17:50.796Z,4.65
2023-01-04T13:20:21.199Z,2.08
2023-01-04T13:22:53.344Z,3.10
2023-01-04T13:25:24.327Z,2.28
2023-01-04T13:28:00.782Z,5.88
2023-01-04T13:30:33.519Z,3.53
2023-01-04T13:33:29.729Z,1.25
2023-01-04T13:36:10.380Z,2.35
2023-01-04T13:38:41.130Z,2.83
2023-01-04T13:41:21.559Z,1.13
2023-01-04T13:44:04.736Z,2.78
2023-01-04T13:46:32.719Z,3.83
2023-01-04T13:49:03.233Z,1.98
2023-01-04T13:51:37.690Z,2.35
2023-01-04T13:54:17.726Z,3.80
2023-01-04T13:56:53.332Z,3.53
2023-01-04T13:59:23.298Z,1.77
2023-01-04T14:01:51.743Z,2.63
2023-01-04T14:04:26.248Z,7.05
2023-01-04T14:06:57.712Z,2.10
2023-01-04T14:09:29.050Z,5.35
2023-01-04T14:12:06.680Z,7.15
2023-01-04T14:14:40.990Z,5.32
2023-01-04T14:17:24.365Z,8.52
2023-01-04T14:19:54.446Z,8.35
2023-01-04T14:22:43.071Z,7.30
2023-01-04T14:25:37.597Z,4.57
2023-01-04T14:28:32.246Z,7.68
2023-01-04T14:31:22.207Z,8.10
2023-01-04T14:33:51.900Z,3.47
2023-01-04T14:36:22.606Z,3.22
2023-01-04T14:38:59.274Z,2.28
2023-01-04T14:41:31.158Z,3.33
2023-01-04T14:44:12.261Z,1.73
2023-01-04T14:46:41.789Z,3.30
2023-01-04T14:49:10.166Z,2.33
2023-01-04T14:51:42.118Z,2.78
2023-01-04T14:54:12.531Z,3.85
2023-01-04T14:56:40.869Z,4.50
2023-01-04T14:59:10.718Z,2.53
2023-01-04T15:01:39.587Z,2.70
2023-01-04T15:04:07.856Z,4.53
2023-01-04T15:06:36.124Z,3.60
2023-01-04T15:09:04.683Z,2.67
2023-01-04T15:11:32.829Z,1.65
2023-01-04T15:14:00.646Z,2.35
2023-01-04T15:16:29.813Z,2.75
2023-01-04T15:18:57.604Z,2.53
2023-01-04T15:21:25.333Z,0.95
2023-01-04T15:23:53.024Z,1.35
2023-01-04T15:26:20.850Z,4.05
2023-01-04T15:28:48.676Z,2.53
2023-01-04T15:31:18.681Z,1.92
2023-01-04T15:33:50.209Z,2.72
2023-01-04T15:36:23.784Z,3.83
2023-01-04T15:38:55.158Z,1.50
2023-01-04T15:41:40.879Z,2.35
2023-01-04T15:44:11.364Z,0.80
2023-01-04T15:46:39.637Z,1.08
2023-01-04T15:49:15.079Z,2.33
2023-01-04T15:51:44.923Z,2.60
2023-01-04T15:54:12.896Z,2.63
2023-01-04T15:56:41.067Z,3.70
2023-01-04T15:59:09.252Z,4.20
2023-01-04T16:01:39.372Z,5.68
2023-01-04T16:04:08.771Z,5.22
2023-01-04T16:06:36.698Z,2.35
2023-01-04T16:09:06.246Z,2.38
2023-01-04T16:11:33.993Z,3.40
2023-01-04T16:14:01.883Z,4.00
2023-01-04T16:16:30.596Z,5.05
2023-01-04T16:18:58.986Z,2.05
2023-01-04T16:21:29.659Z,1.52
2023-01-04T16:24:06.940Z,3.45
2023-01-04T16:26:37.325Z,2.50
2023-01-04T16:29:05.527Z,3.53
2023-01-04T16:31:34.674Z,1.15
2023-01-04T16:34:02.588Z,3.35
2023-01-04T16:36:31.866Z,1.65
2023-01-04T16:38:59.964Z,1.13
2023-01-04T16:41:27.965Z,1.63
2023-01-04T16:43:58.854Z,1.60
2023-01-04T16:46:28.586Z,1.17
2023-01-04T16:48:58.929Z,4.93
2023-01-04T16:51:28.909Z,2.15
2023-01-04T16:53:58.499Z,2.75
2023-01-04T16:56:26.863Z,2.13
2023-01-04T16:58:54.688Z,2.30
2023-01-04T17:01:24.569Z,1.35
2023-01-04T17:03:55.742Z,4.95
2023-01-04T17:06:26.039Z,5.50
2023-01-04T17:08:55.136Z,2.45
2023-01-04T17:14:14.348Z,4.28
2023-01-04T17:16:42.393Z,2.22
2023-01-04T17:19:10.919Z,2.55
2023-01-04T17:21:38.683Z,1.08
2023-01-04T17:24:06.964Z,3.05
2023-01-04T17:26:36.058Z,1.95
2023-01-04T17:29:03.976Z,2.42
2023-01-04T17:31:33.879Z,1.58
2023-01-04T17:34:01.810Z,1.17
2023-01-04T17:36:29.599Z,2.45
2023-01-04T17:38:59.470Z,1.98
2023-01-04T17:41:28.397Z,1.48
2023-01-04T17:44:01.074Z,1.55
2023-01-04T17:46:31.686Z,1.52
2023-01-04T17:51:50.561Z,2.00
2023-01-04T17:54:20.719Z,1.95
2023-01-04T17:56:48.471Z,4.70
2023-01-04T17:59:17.550Z,2.42
2023-01-04T18:01:45.572Z,3.22
2023-01-04T18:04:13.722Z,2.08
2023-01-04T18:06:41.718Z,1.48
2023-01-04T18:09:09.923Z,1.30
2023-01-04T18:11:38.215Z,1.73
2023-01-04T18:14:09.995Z,2.20
2023-01-04T18:16:59.103Z,1.42
2023-01-04T18:19:28.795Z,2.20
2023-01-04T18:21:56.942Z,1.42
2023-01-04T18:24:36.080Z,2.08
2023-01-04T18:29:53.852Z,1.80
2023-01-04T18:32:24.079Z,1.85
2023-01-04T18:34:51.816Z,1.50
2023-01-04T18:37:19.972Z,1.58
2023-01-04T18:39:48.130Z,1.70
2023-01-04T18:42:16.135Z,2.25
2023-01-04T18:44:48.403Z,3.35
2023-01-04T18:47:18.742Z,2.42
2023-01-04T18:49:48.091Z,2.35
2023-01-04T18:52:16.389Z,4.32
2023-01-04T18:54:44.784Z,1.85
2023-01-04T18:57:12.666Z,2.65
2023-01-04T18:59:41.373Z,2.03
2023-01-04T19:02:11.326Z,3.50
2023-01-04T19:04:39.494Z,2.58
2023-01-04T19:07:08.609Z,2.97
2023-01-04T19:09:36.446Z,2.97
2023-01-04T19:12:04.959Z,4.43
2023-01-04T19:14:32.825Z,2.88
2023-01-04T19:17:00.711Z,2.00
2023-01-04T19:19:28.691Z,4.03
2023-01-04T19:21:56.420Z,1.65
2023-01-04T19:24:26.181Z,1.92
2023-01-04T19:26:54.999Z,2.30
2023-01-04T19:29:22.982Z,1.80
2023-01-04T19:31:50.698Z,2.17
2023-01-04T19:34:18.610Z,2.70
2023-01-04T19:36:46.344Z,3.63
2023-01-04T19:39:14.080Z,2.25
2023-01-04T19:41:43.205Z,2.33
2023-01-04T19:44:12.987Z,3.25
2023-01-04T19:46:41.874Z,2.40
2023-01-04T19:49:15.189Z,2.72
2023-01-04T19:51:45.064Z,2.92
2023-01-04T19:54:14.147Z,2.58
2023-01-04T19:56:44.099Z,3.22
2023-01-04T19:59:12.068Z,1.95
2023-01-04T20:01:40.079Z,3.15
2023-01-04T20:04:08.072Z,2.15
2023-01-04T20:06:35.980Z,2.13
2023-01-04T20:09:03.915Z,2.28
2023-01-04T20:11:31.787Z,4.78
2023-01-04T20:14:00.968Z,4.57
2023-01-04T20:16:29.038Z,2.65
2023-01-04T20:18:57.863Z,2.45
2023-01-04T20:21:25.624Z,3.63
2023-01-04T20:23:53.448Z,3.10
2023-01-04T20:26:21.732Z,2.25
2023-01-04T20:28:49.872Z,2.42
2023-01-04T20:31:20.062Z,5.43
2023-01-04T20:33:48.547Z,3.78
2023-01-04T20:36:17.982Z,3.72
2023-01-04T20:38:48.446Z,2.90
2023-01-04T20:41:17.891Z,3.42
2023-01-04T20:43:46.497Z,6.22
2023-01-04T20:46:16.520Z,4.00
2023-01-04T20:48:46.787Z,1.77
2023-01-04T20:51:17.195Z,2.95
2023-01-04T20:53:45.572Z,4.70
2023-01-04T20:56:15.683Z,3.50
2023-01-04T20:58:44.468Z,1.52
2023-01-04T21:01:12.976Z,2.60
2023-01-04T21:03:41.070Z,5.22
2023-01-04T21:06:13.133Z,3.17
2023-01-04T21:08:42.821Z,7.18
2023-01-04T21:11:12.658Z,2.03
2023-01-04T21:13:41.409Z,3.60
2023-01-04T21:16:09.902Z,3.22
2023-01-04T21:18:38.724Z,7.20
2023-01-04T21:21:07.849Z,3.08
2023-01-04T21:23:38.245Z,2.88
2023-01-04T21:26:07.181Z,2.53
2023-01-04T21:28:35.633Z,2.25
2023-01-04T21:31:04.254Z,2.38
2023-01-04T21:33:32.177Z,3.25
2023-01-04T21:35:59.921Z,3.38
2023-01-04T21:38:27.793Z,1.65
2023-01-04T21:40:56.968Z,3.65
2023-01-04T21:43:24.841Z,5.90
2023-01-04T21:45:52.677Z,3.05
2023-01-04T21:48:20.648Z,1.50
2023-01-04T21:50:48.377Z,1.75
2023-01-04T21:53:16.254Z,1.38
2023-01-04T21:55:44.125Z,2.83
2023-01-04T21:58:13.475Z,2.05
2023-01-04T22:00:41.247Z,1.75
2023-01-04T22:03:09.087Z,2.08
2023-01-04T22:05:36.923Z,2.88
2023-01-04T22:08:04.801Z,2.53
2023-01-04T22:10:32.616Z,1.67
2023-01-04T22:13:00.464Z,2.03
2023-01-04T22:15:29.627Z,3.03
2023-01-04T22:17:57.372Z,4.03
2023-01-04T22:20:25.103Z,1.58
2023-01-04T22:22:52.843Z,2.03
2023-01-04T22:25:21.154Z,1.10
2023-01-04T22:27:50.490Z,1.90
2023-01-04T22:30:18.565Z,0.98
2023-01-04T22:32:49.338Z,1.50
2023-01-04T22:35:17.193Z,2.38
2023-01-04T22:37:44.892Z,1.38
2023-01-04T22:40:13.948Z,0.85
2023-01-04T22:42:42.050Z,1.42
2023-01-04T22:45:13.324Z,0.93
2023-01-04T22:47:41.501Z,3.83
2023-01-04T22:50:11.532Z,2.38
2023-01-04T22:52:39.265Z,0.90
2023-01-04T22:55:07.435Z,1.90
2023-01-04T22:57:35.226Z,2.13
2023-01-04T23:00:03.883Z,1.13
2023-01-04T23:02:31.613Z,2.08
2023-01-04T23:04:59.409Z,1.33
2023-01-04T23:07:28.488Z,1.35
2023-01-04T23:09:56.258Z,0.65
2023-01-04T23:12:24.032Z,2.45
2023-01-04T23:14:51.840Z,1.88
2023-01-04T23:17:19.555Z,2.78
2023-01-04T23:19:47.325Z,1.48
2023-01-04T23:22:15.201Z,0.60
2023-01-04T23:24:44.284Z,2.25
2023-01-04T23:27:12.009Z,1.02
2023-01-04T23:29:39.737Z,1.15
2023-01-04T23:32:07.557Z,1.35
2023-01-04T23:34:35.398Z,1.25
2023-01-04T23:37:03.219Z,0.80
2023-01-04T23:39:31.048Z,1.27
2023-01-04T23:42:00.151Z,0.85
2023-01-04T23:44:30.922Z,3.20
2023-01-04T23:47:00.539Z,1.95
2023-01-04T23:49:30.651Z,0.73
2023-01-04T23:51:58.920Z,1.13
2023-01-04T23:54:27.462Z,1.02
2023-01-04T23:56:55.870Z,0.70
2023-01-04T23:59:27.043Z,1.45
